map of GVA home
GVA - Airport
Location
City:  Geneva, Genève, Switzerland
Name:Geneve-Cointrin
ICAO:LSGG
IATA:GVA

Details
Type:Airport (Flugplatz, Airfield)
Use:Public/Civil, International (customs port of entry)
Latitude:46°14'17"N (46.238064)
Longitude:6°06'32"E (6.108950)
Datum:WGS 1984
Elevation:1411 ft (430 m)
Variation:2.02°E (WMM2015v2 magnetic declination)
0.16° annual change
Runways:2
Longest:12795 × 164 ft (3900 × 50 m), paved

Time
Time Zone:UTC+1 (DST+2)
Local Time:

Weather
METAR:LSGG 041350Z 06004KT 340V140 9999 FEW025 SCT300 03/M03 Q1026 NOSIG
TAF:LSGG 041125Z 0412/0518 06005KT 9999 FEW020 TX04/0415Z TNM01/0506Z TX05/0515Z
BECMG 0412/0414 CAVOK

Related Locations
Nearby:
Farthest:CHT: 12224 mi / 19672 km
Waitangi [Tuuta], CIT, NZ

Find:

   beyond  
but within

Other Information
Maps:
NOTAMs:
Links:
Sources:

  
  • flag of Switzerland
  • flag of Genève
  

Airport Diagram

Airport diagram for GVA

Larger airport diagram (OBSOLETE) from NGA

Sectional Chart

Flight Planning
at skyvector.com

Satellite Image

Google Maps Satellite view

 

Copyright © 2004-2019 Karl L. Swartz. All rights reserved.
The Great Circle Mapper name and logo are trademarks of the Great Circle Mapper.
All other trademarks mentioned herein belong to their respective owners.
Please see credits for attibutions and further copyright information.

  Follow gcmap on Facebook Follow gcmap on Twitter GCmap on LinkedIn

hCard Microformat

Geo Microformat